Time;durP1;ratioP1;P1;durP2;ratioP2;P2;SDS_P1;SDS_P2;PMS_P1;PMS_P2;Temp;Humidity;BMP_temperature;BMP_pressure;BME280_temperature;BME280_humidity;BME280_pressure;Samples;Min_cycle;Max_cycle;Signal;HPM_P1;HPM_P2
2023/08/25 00:01:30;;;;;;;;;18.75;18.00;;;;;20.87;87.78;100898.03;4991453;28;8861;-68
2023/08/25 00:03:56;;;;;;;;;16.25;16.25;;;;;20.87;87.69;100906.25;4991889;28;8853;-68
2023/08/25 00:06:23;;;;;;;;;17.50;15.50;;;;;20.87;87.72;100907.06;5001681;28;8846;-68
2023/08/25 00:08:49;;;;;;;;;18.00;18.00;;;;;20.86;87.83;100908.13;4984812;28;8845;-70
2023/08/25 00:11:16;;;;;;;;;18.75;15.75;;;;;20.85;87.80;100908.41;4989734;28;9678;-68
2023/08/25 00:13:42;;;;;;;;;14.75;14.75;;;;;20.84;87.68;100909.50;4991325;28;8841;-68
2023/08/25 00:16:09;;;;;;;;;20.50;18.50;;;;;20.82;87.80;100907.00;4990463;28;8915;-68
2023/08/25 00:18:36;;;;;;;;;16.25;15.50;;;;;20.81;87.74;100902.63;4991389;28;8831;-68
2023/08/25 00:21:02;;;;;;;;;16.00;16.00;;;;;20.80;87.58;100906.44;4989346;28;8858;-68
2023/08/25 00:23:29;;;;;;;;;15.50;15.50;;;;;20.79;87.71;100906.72;4988531;28;8853;-68
2023/08/25 00:25:57;;;;;;;;;17.75;17.00;;;;;20.78;87.86;100910.53;4991575;28;8899;-67
2023/08/25 00:28:23;;;;;;;;;15.50;15.00;;;;;20.77;87.96;100904.22;4991428;28;8841;-68
2023/08/25 00:30:51;;;;;;;;;15.50;15.50;;;;;20.78;87.93;100902.31;4985247;28;8854;-69
2023/08/25 00:33:18;;;;;;;;;17.00;15.75;;;;;20.79;87.99;100901.25;4990938;28;8861;-68
2023/08/25 00:35:44;;;;;;;;;18.75;17.75;;;;;20.77;87.99;100898.75;5011740;28;8834;-69
2023/08/25 00:38:14;;;;;;;;;18.00;17.25;;;;;20.73;88.08;100901.19;4982625;28;8853;-69
2023/08/25 00:40:40;;;;;;;;;13.00;11.75;;;;;20.72;88.07;100898.72;5002938;28;8855;-68
2023/08/25 00:43:06;;;;;;;;;16.25;15.00;;;;;20.71;88.21;100903.38;4970570;28;8851;-68
2023/08/25 00:45:37;;;;;;;;;15.00;15.00;;;;;20.71;88.32;100891.59;4980535;28;8833;-68
2023/08/25 00:48:04;;;;;;;;;14.00;12.50;;;;;20.69;88.49;100889.13;5017033;28;8865;-69
2023/08/25 00:50:33;;;;;;;;;16.25;14.75;;;;;20.67;88.53;100888.56;4987891;28;8852;-69
2023/08/25 00:53:01;;;;;;;;;16.75;16.00;;;;;20.66;88.46;100894.28;5006099;28;8843;-69
2023/08/25 00:55:28;;;;;;;;;17.50;14.75;;;;;20.65;88.75;100896.19;4988508;28;9022;-69
2023/08/25 00:57:55;;;;;;;;;12.00;11.25;;;;;20.65;88.42;100896.19;4987663;28;8830;-68
2023/08/25 01:00:22;;;;;;;;;9.00;9.00;;;;;20.66;88.68;100897.88;4989598;28;8948;-68
2023/08/25 01:02:49;;;;;;;;;10.00;9.75;;;;;20.67;88.72;100895.94;4988490;28;9634;-69
2023/08/25 01:05:16;;;;;;;;;10.00;9.50;;;;;20.64;88.65;100896.47;4985704;28;8825;-67
2023/08/25 01:07:43;;;;;;;;;12.00;10.75;;;;;20.67;88.44;100904.97;4986978;28;9572;-68
2023/08/25 01:10:11;;;;;;;;;7.75;7.75;;;;;20.66;88.54;100905.22;4984886;28;9899;-68
2023/08/25 01:12:53;;;;;;;;;9.00;9.00;;;;;20.67;88.36;100901.41;5003484;28;8934;-69
2023/08/25 01:15:28;;;;;;;;;11.75;11.75;;;;;20.65;88.29;100906.31;4990728;28;8856;-69
2023/08/25 01:18:05;;;;;;;;;11.25;10.25;;;;;20.64;88.22;100894.53;5019714;28;9525;-68
2023/08/25 01:20:32;;;;;;;;;10.25;7.50;;;;;20.66;88.30;100899.75;4988081;28;8838;-69
2023/08/25 01:23:36;;;;;;;;;10.75;8.50;;;;;20.66;88.16;100899.75;4988607;28;8870;-68
2023/08/25 01:26:04;;;;;;;;;9.50;9.50;;;;;20.65;88.26;100892.63;4983321;28;9044;-68
2023/08/25 01:28:30;;;;;;;;;12.50;12.50;;;;;20.63;88.35;100892.09;4981330;28;8919;-68
2023/08/25 01:30:59;;;;;;;;;12.25;11.00;;;;;20.61;88.36;100892.31;4982859;28;8822;-69
2023/08/25 01:33:32;;;;;;;;;14.25;13.25;;;;;20.61;88.33;100886.84;4991334;28;8849;-69
2023/08/25 01:36:21;;;;;;;;;9.75;9.75;;;;;20.61;88.39;100888.78;5005424;28;8845;-68
2023/08/25 01:38:58;;;;;;;;;9.50;8.50;;;;;20.62;88.37;100894.00;4991496;28;8916;-68
2023/08/25 01:41:46;;;;;;;;;11.25;10.50;;;;;20.62;88.14;100891.25;5000646;28;8833;-69
2023/08/25 01:44:18;;;;;;;;;10.50;8.00;;;;;20.58;88.37;100884.66;4994196;28;9587;-69
2023/08/25 01:46:51;;;;;;;;;13.25;12.25;;;;;20.56;88.53;100878.59;5025223;28;8837;-68
2023/08/25 01:49:20;;;;;;;;;10.25;10.25;;;;;20.58;88.49;100878.34;4989853;28;8817;-68
2023/08/25 01:51:47;;;;;;;;;11.75;10.50;;;;;20.56;88.48;100875.88;5016759;28;8830;-68
2023/08/25 01:54:13;;;;;;;;;11.75;10.25;;;;;20.58;88.48;100883.81;4993133;28;8935;-68
2023/08/25 01:56:40;;;;;;;;;9.25;9.25;;;;;20.56;88.31;100877.78;4994083;28;8848;-69
2023/08/25 01:59:07;;;;;;;;;8.25;8.25;;;;;20.54;88.37;100883.53;5009177;28;9435;-68
2023/08/25 02:01:34;;;;;;;;;7.25;7.25;;;;;20.53;88.37;100881.03;5025346;28;8900;-68
2023/08/25 02:04:02;;;;;;;;;8.00;8.00;;;;;20.51;88.33;100875.00;5024855;28;9568;-69
2023/08/25 02:06:30;;;;;;;;;11.25;11.00;;;;;20.48;88.20;100879.06;5017007;28;8848;-68
2023/08/25 02:08:56;;;;;;;;;9.00;9.00;;;;;20.48;88.28;100879.06;4991338;28;8935;-69
2023/08/25 02:11:22;;;;;;;;;8.00;8.00;;;;;20.46;88.30;100873.03;4974880;28;8855;-69
2023/08/25 02:13:49;;;;;;;;;15.25;11.00;;;;;20.45;88.44;100871.34;5008664;28;8848;-69
2023/08/25 02:16:15;;;;;;;;;7.75;7.75;;;;;20.43;88.23;100868.06;5008894;28;8919;-69
2023/08/25 02:18:43;;;;;;;;;8.75;8.25;;;;;20.43;88.29;100865.34;4986998;28;8842;-69
2023/08/25 02:21:09;;;;;;;;;9.00;7.75;;;;;20.40;88.13;100874.88;4992364;28;8841;-69
2023/08/25 02:23:36;;;;;;;;;8.50;8.25;;;;;20.38;88.33;100870.78;4990838;28;8852;-67
2023/08/25 02:26:03;;;;;;;;;10.50;9.25;;;;;20.38;88.17;100862.56;4992466;28;8892;-68
2023/08/25 02:28:29;;;;;;;;;10.25;8.75;;;;;20.37;88.21;100860.88;4992461;28;8895;-69
2023/08/25 02:30:58;;;;;;;;;8.25;8.00;;;;;20.37;88.18;100858.16;4972912;28;8856;-68
2023/08/25 02:33:25;;;;;;;;;13.00;11.75;;;;;20.35;88.00;100852.13;5001487;28;9552;-68
2023/08/25 02:35:51;;;;;;;;;11.00;11.00;;;;;20.33;88.19;100844.19;4987430;28;8932;-69
2023/08/25 02:38:18;;;;;;;;;11.75;10.25;;;;;20.32;88.01;100837.06;5018332;28;9561;-68
2023/08/25 02:40:44;;;;;;;;;9.50;8.25;;;;;20.31;88.14;100834.59;4990957;28;8938;-68
2023/08/25 02:43:11;;;;;;;;;14.50;13.00;;;;;20.28;88.03;100826.91;5007008;28;8947;-68
2023/08/25 02:45:38;;;;;;;;;12.50;11.00;;;;;20.27;88.09;100825.28;5025028;28;8855;-68
2023/08/25 02:48:05;;;;;;;;;13.25;10.50;;;;;20.27;87.86;100828.00;4985629;28;8901;-68
2023/08/25 02:50:33;;;;;;;;;11.50;11.50;;;;;20.24;88.11;100827.44;4983562;28;8952;-69
2023/08/25 02:53:00;;;;;;;;;14.75;13.50;;;;;20.23;87.86;100831.25;4987741;28;8848;-68
2023/08/25 02:55:26;;;;;;;;;18.25;15.50;;;;;20.22;87.87;100832.34;4992521;28;8856;-68
2023/08/25 02:57:53;;;;;;;;;18.75;16.75;;;;;20.21;88.01;100830.66;5024695;28;8828;-69
2023/08/25 03:00:24;;;;;;;;;20.75;19.25;;;;;20.22;88.12;100832.34;5008406;28;8844;-68
2023/08/25 03:02:53;;;;;;;;;19.75;18.75;;;;;20.21;88.22;100825.19;4993543;28;8843;-67
2023/08/25 03:05:21;;;;;;;;;19.25;18.50;;;;;20.21;88.41;100818.91;4990134;28;8849;-67
2023/08/25 03:07:52;;;;;;;;;21.00;19.75;;;;;20.22;88.68;100813.22;4989669;28;8964;-67
2023/08/25 03:10:20;;;;;;;;;28.50;25.75;;;;;20.22;88.73;100820.59;4990084;28;8877;-67
2023/08/25 03:12:47;;;;;;;;;25.75;24.75;;;;;20.24;88.66;100819.22;5007295;28;9626;-68
2023/08/25 03:15:13;;;;;;;;;27.00;24.25;;;;;20.24;89.00;100816.50;4987372;28;8845;-67
2023/08/25 03:17:43;;;;;;;;;29.33;27.33;;;;;20.24;88.97;100821.97;5023783;28;8861;-68
2023/08/25 03:20:10;;;;;;;;;38.33;34.00;;;;;20.24;89.05;100812.94;4990249;28;8930;-67
2023/08/25 03:22:37;;;;;;;;;41.67;36.00;;;;;20.19;89.16;100805.50;5019021;28;9189;-68
2023/08/25 03:25:04;;;;;;;;;43.33;35.00;;;;;20.17;89.66;100809.59;4989920;28;9161;-67
2023/08/25 03:27:32;;;;;;;;;23.25;21.75;;;;;20.18;89.91;100806.59;4990337;28;9166;-68
2023/08/25 03:29:59;;;;;;;;;27.75;26.25;;;;;20.21;90.07;100807.97;5003466;28;8875;-67
2023/08/25 03:32:28;;;;;;;;;23.25;22.00;;;;;20.21;90.06;100806.06;4989878;28;8846;-68
2023/08/25 03:34:55;;;;;;;;;24.00;24.00;;;;;20.21;89.88;100803.34;4988332;28;8865;-68
2023/08/25 03:37:24;;;;;;;;;30.00;23.25;;;;;20.22;90.05;100802.28;5017602;28;8964;-67
2023/08/25 03:39:50;;;;;;;;;28.75;23.75;;;;;20.23;90.14;100803.09;4990073;28;8844;-67
2023/08/25 03:42:18;;;;;;;;;29.25;26.25;;;;;20.24;89.97;100807.47;4989571;28;8973;-67
2023/08/25 03:44:45;;;;;;;;;32.25;28.25;;;;;20.23;90.08;100803.91;4983156;28;9660;-68
2023/08/25 03:47:12;;;;;;;;;34.25;30.25;;;;;20.22;90.17;100805.00;5007301;28;8837;-69
2023/08/25 03:49:38;;;;;;;;;39.33;37.00;;;;;20.17;90.12;100799.47;4990809;28;8863;-69
2023/08/25 03:52:07;;;;;;;;;32.75;31.00;;;;;20.16;90.34;100799.75;4990024;28;9254;-68
2023/08/25 03:54:35;;;;;;;;;33.00;31.25;;;;;20.15;90.49;100798.09;5005908;28;8853;-70
2023/08/25 03:57:06;;;;;;;;;23.00;22.00;;;;;20.15;90.45;100792.63;4991145;28;8815;-68
2023/08/25 03:59:33;;;;;;;;;25.50;22.00;;;;;20.15;90.61;100788.00;4990356;28;8853;-68
2023/08/25 04:02:01;;;;;;;;;18.50;17.75;;;;;20.16;90.77;100789.63;4990708;28;8847;-67
2023/08/25 04:04:31;;;;;;;;;21.00;17.25;;;;;20.15;90.61;100781.69;5004695;28;8895;-67
2023/08/25 04:06:58;;;;;;;;;21.25;20.50;;;;;20.16;90.89;100780.59;4985044;28;9421;-67
2023/08/25 04:09:26;;;;;;;;;20.00;19.00;;;;;20.17;90.58;100780.34;4988882;28;8921;-68
2023/08/25 04:11:56;;;;;;;;;24.50;23.00;;;;;20.18;90.29;100781.19;4985244;28;8976;-69
2023/08/25 04:14:23;;;;;;;;;29.75;26.50;;;;;20.18;90.34;100784.75;5018395;28;8845;-67
2023/08/25 04:16:49;;;;;;;;;30.00;25.75;;;;;20.18;90.19;100784.75;4990269;28;9549;-69
2023/08/25 04:19:16;;;;;;;;;23.00;20.50;;;;;20.18;90.19;100787.47;4989233;28;8836;-68
2023/08/25 04:21:44;;;;;;;;;28.75;26.50;;;;;20.17;90.24;100777.59;4976977;28;8834;-68
2023/08/25 04:24:11;;;;;;;;;27.75;27.00;;;;;20.19;90.29;100780.09;5022781;28;9677;-68
2023/08/25 04:26:38;;;;;;;;;23.00;19.50;;;;;20.17;90.44;100777.59;4983023;28;8836;-69
2023/08/25 04:29:06;;;;;;;;;21.25;19.75;;;;;20.19;90.33;100780.09;4998972;28;8850;-69
2023/08/25 04:31:32;;;;;;;;;26.00;26.00;;;;;20.19;90.21;100770.00;5015739;28;8916;-68
2023/08/25 04:33:59;;;;;;;;;30.25;26.50;;;;;20.19;90.14;100775.44;5014429;28;8932;-68
2023/08/25 04:36:27;;;;;;;;;28.50;24.25;;;;;20.19;90.27;100774.63;4987501;28;8984;-68
2023/08/25 04:38:54;;;;;;;;;23.25;20.50;;;;;20.18;90.52;100770.25;4992049;28;8842;-67
2023/08/25 04:41:21;;;;;;;;;20.00;18.25;;;;;20.20;90.42;100770.81;5005582;28;8837;-70
2023/08/25 04:43:47;;;;;;;;;19.00;19.00;;;;;20.22;90.32;100769.47;5002952;28;8879;-68
2023/08/25 04:46:14;;;;;;;;;24.25;21.25;;;;;20.21;90.46;100770.53;5016694;28;8936;-68
2023/08/25 04:48:45;;;;;;;;;21.75;21.00;;;;;20.21;90.33;100778.72;5004273;28;8866;-68
2023/08/25 04:51:13;;;;;;;;;22.00;21.00;;;;;20.22;90.11;100771.38;4988190;28;8901;-68
2023/08/25 04:53:40;;;;;;;;;24.50;24.00;;;;;20.20;90.06;100766.16;4997251;28;8874;-69
2023/08/25 04:56:06;;;;;;;;;21.25;19.25;;;;;20.20;90.20;100766.16;5021724;28;8833;-67
2023/08/25 04:58:33;;;;;;;;;21.50;20.25;;;;;20.23;90.13;100765.66;5012297;28;8908;-68
2023/08/25 05:01:01;;;;;;;;;22.75;22.75;;;;;20.24;90.14;100771.94;4986282;28;8823;-70
2023/08/25 05:03:28;;;;;;;;;26.50;20.50;;;;;20.22;89.97;100771.38;5014858;28;8831;-68
2023/08/25 05:05:54;;;;;;;;;19.25;18.00;;;;;20.23;89.93;100775.75;5005032;28;8858;-67
2023/08/25 05:08:23;;;;;;;;;22.50;21.25;;;;;20.22;89.74;100774.13;4983331;28;8833;-68
2023/08/25 05:10:52;;;;;;;;;23.00;21.25;;;;;20.23;89.96;100783.97;4987441;28;8864;-68
2023/08/25 05:13:19;;;;;;;;;21.75;19.75;;;;;20.21;89.81;100784.19;4987861;28;8818;-69
2023/08/25 05:15:47;;;;;;;;;24.50;23.00;;;;;20.21;89.81;100783.38;4989093;28;8870;-69
2023/08/25 05:18:20;;;;;;;;;23.75;20.50;;;;;20.17;89.87;100769.41;5020666;28;8962;-67
2023/08/25 05:20:47;;;;;;;;;24.75;24.50;;;;;20.14;90.01;100769.94;5021455;28;8968;-69
2023/08/25 05:23:13;;;;;;;;;22.75;20.50;;;;;20.14;90.00;100775.41;4982034;28;8849;-67
2023/08/25 05:25:40;;;;;;;;;25.75;23.75;;;;;20.13;89.98;100776.47;4999913;28;8855;-68
2023/08/25 05:28:06;;;;;;;;;24.00;21.75;;;;;20.12;90.08;100776.75;4987420;28;9022;-68
2023/08/25 05:30:33;;;;;;;;;19.50;19.00;;;;;20.12;89.94;100777.56;5003273;28;8851;-68
2023/08/25 05:33:00;;;;;;;;;27.00;21.25;;;;;20.14;90.05;100775.41;5020885;28;8835;-68
2023/08/25 05:35:45;;;;;;;;;19.75;17.75;;;;;20.14;89.99;100780.88;5002937;28;8816;-67
2023/08/25 05:38:12;;;;;;;;;19.00;19.00;;;;;20.14;90.08;100775.41;4986615;28;9697;-67
2023/08/25 05:40:39;;;;;;;;;23.00;22.25;;;;;20.14;90.07;100772.69;4980532;28;9653;-68
2023/08/25 05:43:06;;;;;;;;;26.00;20.50;;;;;20.15;90.13;100765.31;4984731;28;8919;-67
2023/08/25 05:45:32;;;;;;;;;25.75;21.75;;;;;20.16;89.97;100762.31;4990127;28;8854;-69
2023/08/25 05:48:01;;;;;;;;;23.00;23.00;;;;;20.16;90.02;100764.22;5004790;28;8833;-68
2023/08/25 05:50:29;;;;;;;;;22.25;20.25;;;;;20.18;89.85;100773.00;5004449;28;8894;-69
2023/08/25 05:52:56;;;;;;;;;22.75;20.50;;;;;20.19;89.94;100771.91;5019447;28;8829;-69
2023/08/25 05:55:23;;;;;;;;;21.25;21.25;;;;;20.19;89.83;100770.00;5017376;28;8909;-68
2023/08/25 05:57:50;;;;;;;;;22.33;19.00;;;;;20.20;89.73;100773.53;4990437;28;8831;-68
2023/08/25 06:00:17;;;;;;;;;25.50;21.75;;;;;20.21;89.86;100772.44;5017834;28;8936;-68
2023/08/25 06:02:44;;;;;;;;;18.00;17.75;;;;;20.22;89.89;100763.19;4988814;28;9651;-68
2023/08/25 06:05:10;;;;;;;;;24.25;21.50;;;;;20.23;89.96;100764.81;4987328;28;8845;-68
2023/08/25 06:07:37;;;;;;;;;23.75;22.25;;;;;20.23;89.69;100765.66;4987538;28;8838;-68
2023/08/25 06:10:04;;;;;;;;;19.25;19.25;;;;;20.24;89.77;100759.09;5020541;28;8865;-68
2023/08/25 06:12:30;;;;;;;;;25.00;23.00;;;;;20.25;89.79;100763.50;4988878;28;8921;-68
2023/08/25 06:14:57;;;;;;;;;25.50;23.25;;;;;20.28;89.75;100750.38;5001182;28;8939;-69
2023/08/25 06:17:23;;;;;;;;;20.25;20.25;;;;;20.28;89.90;100742.19;4984872;28;8849;-69
2023/08/25 06:19:50;;;;;;;;;17.25;17.25;;;;;20.29;89.59;100743.81;4979508;28;8848;-69
2023/08/25 06:22:16;;;;;;;;;17.25;16.75;;;;;20.30;89.75;100750.94;5006858;28;8838;-68
2023/08/25 06:24:43;;;;;;;;;22.00;16.75;;;;;20.30;89.75;100742.75;4987293;28;9590;-69
2023/08/25 06:27:09;;;;;;;;;20.00;16.75;;;;;20.30;89.86;100742.75;5024657;28;9648;-69
2023/08/25 06:29:36;;;;;;;;;16.00;13.00;;;;;20.33;89.85;100737.56;5024790;28;8844;-69
2023/08/25 06:32:03;;;;;;;;;16.75;16.75;;;;;20.34;89.79;100747.44;4992776;28;8838;-68
2023/08/25 06:34:29;;;;;;;;;22.00;18.25;;;;;20.33;89.61;100745.75;4989452;28;8939;-69
2023/08/25 06:36:56;;;;;;;;;22.25;19.00;;;;;20.35;89.79;100751.00;4978806;28;8828;-68
2023/08/25 06:39:22;;;;;;;;;18.75;17.25;;;;;20.36;89.71;100750.72;4991163;28;9577;-69
2023/08/25 06:41:49;;;;;;;;;23.25;19.25;;;;;20.38;89.33;100747.75;5012582;28;8860;-69
2023/08/25 06:44:17;;;;;;;;;22.25;18.50;;;;;20.37;89.64;100746.06;4997814;28;8983;-69
2023/08/25 06:46:44;;;;;;;;;18.50;16.00;;;;;20.37;89.72;100751.53;4991939;28;8866;-68
2023/08/25 06:49:11;;;;;;;;;21.25;20.75;;;;;20.38;89.70;100754.03;4988783;28;8821;-70
2023/08/25 06:51:38;;;;;;;;;24.00;16.00;;;;;20.38;89.60;100754.03;4993160;28;8868;-68
2023/08/25 06:54:05;;;;;;;;;28.50;25.00;;;;;20.38;89.61;100759.50;4986729;28;8845;-68
2023/08/25 06:56:33;;;;;;;;;22.00;20.50;;;;;20.38;89.45;100755.94;5023868;28;8846;-69
2023/08/25 06:58:59;;;;;;;;;29.75;28.50;;;;;20.38;89.67;100769.59;4987572;28;8954;-68
2023/08/25 07:01:25;;;;;;;;;26.25;23.00;;;;;20.38;89.77;100775.91;4987116;28;8837;-69
2023/08/25 07:03:52;;;;;;;;;24.50;20.75;;;;;20.39;89.93;100768.50;4989859;28;8895;-68
2023/08/25 07:06:18;;;;;;;;;26.50;25.25;;;;;20.40;89.73;100757.31;4993525;28;8893;-69
2023/08/25 07:08:45;;;;;;;;;18.50;17.50;;;;;20.44;89.70;100765.81;4989605;28;9521;-70
2023/08/25 07:11:11;;;;;;;;;23.00;21.00;;;;;20.45;89.80;100756.50;5006720;28;8923;-68
2023/08/25 07:13:38;;;;;;;;;21.25;17.25;;;;;20.47;89.57;100751.63;5020533;28;8821;-68
2023/08/25 07:16:04;;;;;;;;;15.00;15.00;;;;;20.47;89.51;100746.97;4994796;28;8864;-71
2023/08/25 07:18:31;;;;;;;;;17.50;16.75;;;;;20.48;89.87;100753.25;4992538;28;8838;-69
2023/08/25 07:21:03;;;;;;;;;19.25;19.25;;;;;20.49;89.56;100744.81;4991524;28;8902;-69
2023/08/25 07:23:30;;;;;;;;;18.25;17.00;;;;;20.51;89.66;100744.56;4993037;28;8850;-69
2023/08/25 07:25:56;;;;;;;;;17.00;15.00;;;;;20.53;89.73;100739.66;4989229;28;8904;-69
2023/08/25 07:28:23;;;;;;;;;19.75;18.00;;;;;20.55;89.44;100737.50;4988087;28;8856;-70
2023/08/25 07:30:51;;;;;;;;;16.25;12.50;;;;;20.54;89.24;100737.75;4985606;28;8932;-69
2023/08/25 07:33:17;;;;;;;;;20.50;18.50;;;;;20.53;89.43;100731.44;4988307;28;8899;-69
2023/08/25 07:35:44;;;;;;;;;17.25;14.75;;;;;20.54;89.49;100738.59;4992238;28;8868;-68
2023/08/25 07:38:11;;;;;;;;;18.25;16.00;;;;;20.54;89.37;100724.91;4991175;28;8848;-69
2023/08/25 07:40:37;;;;;;;;;17.00;17.00;;;;;20.55;89.01;100731.19;4991093;28;8818;-68
2023/08/25 07:43:04;;;;;;;;;17.50;17.50;;;;;20.55;89.01;100731.19;4991155;28;8826;-69
2023/08/25 07:45:31;;;;;;;;;25.00;21.75;;;;;20.52;88.56;100732.53;5011858;28;8857;-68
2023/08/25 07:47:59;;;;;;;;;21.50;16.75;;;;;20.53;88.99;100733.38;5019041;28;8830;-68
2023/08/25 07:50:28;;;;;;;;;16.50;13.00;;;;;20.56;88.85;100735.56;5004699;28;8857;-69
2023/08/25 07:52:55;;;;;;;;;13.25;11.00;;;;;20.56;88.58;100738.31;4990203;28;8849;-68
2023/08/25 07:55:22;;;;;;;;;12.50;11.75;;;;;20.55;88.66;100736.69;5001938;28;9523;-71
2023/08/25 07:57:49;;;;;;;;;16.25;15.50;;;;;20.53;88.48;100736.91;4988221;28;8877;-69
2023/08/25 08:00:17;;;;;;;;;17.75;17.00;;;;;20.54;88.66;100735.84;4991495;28;9545;-69
2023/08/25 08:02:45;;;;;;;;;22.75;19.00;;;;;20.59;88.41;100737.78;4990730;28;8833;-68
2023/08/25 08:05:14;;;;;;;;;20.25;17.50;;;;;20.61;88.39;100732.88;4989755;28;8857;-68
2023/08/25 08:07:42;;;;;;;;;11.50;11.50;;;;;20.62;88.14;100738.09;4983559;28;8860;-68
2023/08/25 08:10:10;;;;;;;;;15.75;15.75;;;;;20.64;87.95;100748.75;4984299;28;8840;-70
2023/08/25 08:12:37;;;;;;;;;17.25;14.00;;;;;20.64;87.81;100746.84;4990191;28;8846;-69
2023/08/25 08:15:06;;;;;;;;;14.00;14.00;;;;;20.64;87.71;100738.63;4985780;28;8840;-69
2023/08/25 08:17:33;;;;;;;;;13.25;12.25;;;;;20.68;87.59;100733.47;4975624;28;9539;-69
2023/08/25 08:20:00;;;;;;;;;13.00;13.00;;;;;20.72;87.40;100735.41;4991371;28;8834;-70
2023/08/25 08:22:27;;;;;;;;;12.25;12.00;;;;;20.75;86.93;100739.53;4981548;28;8915;-70
2023/08/25 08:24:53;;;;;;;;;16.25;12.00;;;;;20.79;86.83;100745.31;4994053;28;8933;-69
2023/08/25 08:27:20;;;;;;;;;13.00;11.00;;;;;20.83;86.56;100749.16;4991156;28;8833;-69
2023/08/25 08:29:47;;;;;;;;;15.25;14.50;;;;;20.82;86.13;100750.22;4989932;28;8847;-70
2023/08/25 08:32:14;;;;;;;;;14.50;13.50;;;;;20.83;85.67;100752.72;4991529;28;8839;-69
2023/08/25 08:34:41;;;;;;;;;10.00;9.75;;;;;20.86;85.91;100754.91;4991499;28;8827;-69
2023/08/25 08:37:07;;;;;;;;;12.25;12.00;;;;;20.88;85.73;100744.53;4991723;28;8916;-69
2023/08/25 08:39:37;;;;;;;;;13.75;13.50;;;;;20.92;85.57;100750.31;4990064;28;8975;-68
2023/08/25 08:42:05;;;;;;;;;18.50;14.00;;;;;20.96;85.39;100748.69;5023142;28;8846;-70
2023/08/25 08:44:36;;;;;;;;;17.00;12.75;;;;;21.04;85.15;100744.63;4991115;28;8842;-70
2023/08/25 08:47:03;;;;;;;;;12.50;12.50;;;;;21.09;84.65;100750.13;5022952;28;8838;-68
2023/08/25 08:49:33;;;;;;;;;20.50;18.25;;;;;21.14;84.40;100747.38;4991308;28;8845;-70
2023/08/25 08:52:01;;;;;;;;;16.25;14.00;;;;;21.19;84.16;100733.75;4991065;28;8861;-70
2023/08/25 08:54:28;;;;;;;;;17.00;13.25;;;;;21.24;83.62;100737.31;5006284;28;8908;-69
2023/08/25 08:56:54;;;;;;;;;12.75;11.25;;;;;21.28;83.78;100740.34;4987499;28;8849;-69
2023/08/25 08:59:22;;;;;;;;;17.50;15.75;;;;;21.32;83.37;100738.75;4991220;28;8841;-69
2023/08/25 09:01:49;;;;;;;;;13.25;11.50;;;;;21.34;83.11;100752.16;4989115;28;8833;-70
2023/08/25 09:04:22;;;;;;;;;10.00;10.00;;;;;21.31;82.85;100749.91;5006036;28;8853;-68
2023/08/25 09:06:51;;;;;;;;;12.50;12.50;;;;;21.23;82.75;100760.31;4991720;28;8877;-71
2023/08/25 09:09:19;;;;;;;;;12.00;10.75;;;;;21.23;82.79;100756.75;4987690;28;8838;-68
2023/08/25 09:11:46;;;;;;;;;14.25;14.25;;;;;21.20;82.51;100762.75;4990550;28;8823;-69
2023/08/25 09:14:22;;;;;;;;;13.50;12.00;;;;;21.20;82.35;100757.28;4990788;28;8901;-69
2023/08/25 09:16:52;;;;;;;;;19.75;15.25;;;;;21.26;82.49;100763.59;5011989;28;8864;-68
2023/08/25 09:19:19;;;;;;;;;13.25;12.25;;;;;21.30;82.04;100768.25;4988782;28;8928;-68
2023/08/25 09:21:46;;;;;;;;;18.00;15.75;;;;;21.31;81.74;100771.81;4990296;28;9573;-69
2023/08/25 09:24:21;;;;;;;;;11.00;11.00;;;;;21.32;81.43;100768.88;4991877;28;8830;-71
2023/08/25 09:26:49;;;;;;;;;10.33;10.33;;;;;21.37;81.42;100773.53;4983202;28;8841;-68
2023/08/25 09:29:18;;;;;;;;;10.25;8.50;;;;;21.43;81.30;100773.31;4988991;28;8853;-68
2023/08/25 09:31:44;;;;;;;;;11.25;10.25;;;;;21.50;80.95;100770.28;4990319;28;9560;-69
2023/08/25 09:34:13;;;;;;;;;6.50;6.50;;;;;21.55;80.47;100770.31;4989506;28;8879;-70
2023/08/25 09:36:51;;;;;;;;;9.50;7.25;;;;;21.56;80.21;100773.88;4990815;28;8825;-68
2023/08/25 09:39:18;;;;;;;;;13.25;11.75;;;;;21.57;79.94;100781.00;4988721;28;9587;-67
2023/08/25 09:41:46;;;;;;;;;11.25;11.25;;;;;21.59;80.22;100773.31;4989408;28;8832;-68
2023/08/25 09:44:15;;;;;;;;;14.75;13.25;;;;;21.60;80.37;100773.06;4990446;28;8845;-70
2023/08/25 09:46:43;;;;;;;;;11.25;9.25;;;;;21.63;80.20;100772.53;4990280;28;8971;-69
2023/08/25 09:49:13;;;;;;;;;14.00;12.00;;;;;21.63;79.83;100771.69;4991021;28;8834;-71
2023/08/25 09:51:42;;;;;;;;;11.00;11.00;;;;;21.59;79.77;100768.69;5023670;28;8849;-68
2023/08/25 09:54:10;;;;;;;;;11.25;11.25;;;;;21.59;79.84;100763.22;4994413;28;9651;-69
2023/08/25 09:56:38;;;;;;;;;11.75;9.50;;;;;21.61;79.88;100769.25;5025067;28;8932;-69
2023/08/25 09:59:06;;;;;;;;;11.25;11.00;;;;;21.64;79.36;100770.63;4993107;28;8904;-71
2023/08/25 10:01:38;;;;;;;;;11.75;11.75;;;;;21.69;79.49;100762.41;4992453;28;8911;-69
2023/08/25 10:04:06;;;;;;;;;12.00;10.75;;;;;21.78;79.55;100771.75;4989633;28;8828;-68
2023/08/25 10:06:35;;;;;;;;;12.00;12.00;;;;;21.86;79.23;100764.91;4992263;28;8869;-68
2023/08/25 10:09:02;;;;;;;;;13.50;12.75;;;;;21.85;78.90;100757.78;4991902;28;8850;-68
2023/08/25 10:11:43;;;;;;;;;13.25;13.25;;;;;21.86;78.85;100759.44;4992954;28;8826;-69
2023/08/25 10:14:12;;;;;;;;;13.25;13.25;;;;;21.84;78.68;100761.63;4992697;28;8837;-69
2023/08/25 10:16:52;;;;;;;;;7.25;7.00;;;;;21.82;78.71;100761.06;4993968;28;8822;-68
2023/08/25 10:19:24;;;;;;;;;14.25;8.50;;;;;21.85;78.60;100752.31;5025730;28;8833;-69
2023/08/25 10:21:51;;;;;;;;;12.50;12.50;;;;;21.85;78.27;100753.13;5008654;28;9694;-70
2023/08/25 10:24:20;;;;;;;;;11.50;10.75;;;;;21.89;78.47;100756.97;5024821;28;8877;-70
2023/08/25 10:26:51;;;;;;;;;13.50;12.25;;;;;21.88;78.11;100749.03;5003908;28;8860;-69
2023/08/25 10:29:20;;;;;;;;;13.25;12.00;;;;;21.87;78.03;100753.66;4994079;28;9667;-70
2023/08/25 10:31:51;;;;;;;;;13.25;11.00;;;;;21.85;77.94;100746.84;4993265;28;8857;-69
2023/08/25 10:34:42;;;;;;;;;19.25;18.00;;;;;21.78;77.75;100735.31;5009068;28;9646;-70
2023/08/25 10:37:10;;;;;;;;;15.00;13.50;;;;;21.78;77.66;100738.03;5008920;28;9588;-70
2023/08/25 10:39:57;;;;;;;;;10.75;9.00;;;;;21.77;77.05;100737.22;4992842;28;8849;-69
2023/08/25 10:42:27;;;;;;;;;11.25;9.00;;;;;21.80;76.98;100735.88;4993110;28;8850;-69
2023/08/25 10:44:55;;;;;;;;;10.50;9.25;;;;;21.87;76.74;100741.88;4993397;28;8849;-68
2023/08/25 10:47:23;;;;;;;;;14.00;13.00;;;;;21.91;76.25;100735.59;4993406;28;8893;-69
2023/08/25 10:49:55;;;;;;;;;13.25;12.50;;;;;21.98;75.92;100732.59;5024460;28;8837;-69
2023/08/25 10:52:22;;;;;;;;;14.50;13.50;;;;;22.06;75.43;100734.78;5008640;28;8849;-70
2023/08/25 10:54:53;;;;;;;;;12.50;12.50;;;;;22.12;75.01;100732.84;4993055;28;8840;-69
2023/08/25 10:57:27;;;;;;;;;9.25;8.25;;;;;22.19;74.67;100737.00;4993208;28;8829;-69
2023/08/25 10:59:56;;;;;;;;;10.75;10.75;;;;;22.23;74.41;100736.47;4990536;28;8907;-70
2023/08/25 11:02:36;;;;;;;;;8.25;8.25;;;;;22.24;74.01;100733.47;4991665;28;8900;-68
2023/08/25 11:05:31;;;;;;;;;9.50;9.50;;;;;22.25;73.85;100737.84;4992905;28;8861;-69
2023/08/25 11:08:23;;;;;;;;;11.50;10.25;;;;;22.28;73.80;100734.56;5017778;28;8911;-69
2023/08/25 11:11:12;;;;;;;;;11.75;10.75;;;;;22.38;73.25;100740.03;5000219;28;8877;-69
2023/08/25 11:13:40;;;;;;;;;14.25;12.50;;;;;22.41;72.54;100725.78;4991917;28;8948;-69
2023/08/25 11:16:11;;;;;;;;;9.00;8.75;;;;;22.55;72.52;100731.50;4992704;28;8843;-70
2023/08/25 11:18:42;;;;;;;;;13.50;13.25;;;;;22.63;72.19;100730.13;5024680;28;8933;-70
2023/08/25 11:21:09;;;;;;;;;9.50;9.00;;;;;22.71;70.98;100733.13;4992725;28;8881;-69
2023/08/25 11:23:38;;;;;;;;;10.00;9.25;;;;;22.74;70.66;100737.22;4992278;28;9980;-70
2023/08/25 11:26:06;;;;;;;;;12.25;10.75;;;;;22.86;69.96;100734.19;4992974;28;8880;-70